Terminal Aerodrome Forecast
Issued by NWS

Home | Current Version | Previous Version | Text Only | Print | Product List | Glossary On
Versions: 1 2 3 4 5 6 7 8 9 10 11 12
000
FTAK31 PAJN 282300
TAFASI
TAF
PASI 282326Z 0100/0124 26006KT P6SM SCT025 BKN080
      TEMPO 0100/0103 BKN025
     FM010300 VRB04KT P6SM BKN025
     FM010800 13005KT 6SM -RA BR BKN025 OVC040
     FM011100 VRB04KT 4SM -RA BR BKN015 OVC030
     FM011600 07005KT P6SM BKN010
     FM011900 32006KT P6SM FEW015=

USA.gov is the U.S. government's official web portal to all federal, state and local government web resources and services.